NIUE

Details ICAO NIUE (IUE)
Name Niue
Region Niue
Timezone Pacific/Niue (UTC-11.0)
Plans Departing 24
Arriving 41
Stats Elevation 209 ft / 64 m (AMSL)
Location -19.079010° -169.925766°
Runways 1
Magnetic Variation 13.095° E
Sunrise 2018-05-23 17:44:06 UTC / 2018-05-23 06:44:06 Local
Sunset 2018-05-24 04:51:45 UTC / 2018-05-23 17:51:45 Local
Advertisement - Login to hide

Runways

ID Width Length Bearing (true) Bearing (mag) Surface Threshold Offset Overrun Length
10 148 ft / 45 m 7,644 ft / 2,330 m 109.90° 96.81° Asphalt 0 ft / 0 m 0 ft / 0 m
28 148 ft / 45 m 7,644 ft / 2,330 m 289.90° 276.81° Asphalt 0 ft / 0 m 0 ft / 0 m

Map

Weather


0- 5 10 15 20 25 30 35+ Temperature / ° C

Clouds and Precipitation
Forecast for 2018-05-24 00:00 UTC. Updated 4 hours ago

Ground ~20,000 ft ~40,000 ft Winds

METAR

NIUE 240300Z 11005KT 9999 +DZ BKN018 27/25 Q1011

TAF

TAF NIUE 231705Z 2318/2418 04005KT 9999 SCT018

Frequencies

Tower 118.10 MHz FSS
Warning: Do not use this data for real-world aviation or navigation. No guarantee of current accuracy is given.